Hebron, Nebraska
Current Conditions -  °F | °C
As of 11:55 PM on Friday 28 Nov 2014 (Local Time) from KHJH Reporting Station
Clear Clear  
Wind Chill: 45°   Ceiling: Unl
Heat Index: 48°   Visibility: 10mi
Dew Point: 31°   Wind: 8mph
Humidity: 51%   Direction: 240°WSW
Pressure: 29.65"   Gusts: NA
Location:  40.17°N, 97.59°W
Report Text: KHJH 290555Z AUTO 24007KT 10SM CLR 09/00 A2965 RMK AO2 T00911005 10147 20087 401851034
Loading
Personal Weather Stations






























Interactive Weather Map New forecast layout! Learn more

10-Day Weather Forecast

Advertisements
Track Severe Weather on mobile